sensor_id;sensor_type;location;lat;lon;timestamp;P1;durP1;ratioP1;P2;durP2;ratioP2
9657;SDS011;4867;48.112;11.622;2023-05-10T00:00:39;1.80;;;1.67;;
9657;SDS011;4867;48.112;11.622;2023-05-10T00:03:07;1.80;;;1.70;;
9657;SDS011;4867;48.112;11.622;2023-05-10T00:05:35;1.90;;;1.70;;
9657;SDS011;4867;48.112;11.622;2023-05-10T00:08:05;2.30;;;1.73;;
9657;SDS011;4867;48.112;11.622;2023-05-10T00:10:33;2.57;;;1.70;;
9657;SDS011;4867;48.112;11.622;2023-05-10T00:13:00;2.57;;;1.57;;
9657;SDS011;4867;48.112;11.622;2023-05-10T00:15:27;2.23;;;1.60;;
9657;SDS011;4867;48.112;11.622;2023-05-10T00:17:57;2.30;;;1.80;;
9657;SDS011;4867;48.112;11.622;2023-05-10T00:20:24;1.63;;;1.53;;
9657;SDS011;4867;48.112;11.622;2023-05-10T00:22:51;1.83;;;1.73;;
9657;SDS011;4867;48.112;11.622;2023-05-10T00:25:19;2.10;;;1.80;;
9657;SDS011;4867;48.112;11.622;2023-05-10T00:27:48;1.60;;;1.50;;
9657;SDS011;4867;48.112;11.622;2023-05-10T00:30:16;2.10;;;1.90;;
9657;SDS011;4867;48.112;11.622;2023-05-10T00:32:44;2.60;;;1.50;;
9657;SDS011;4867;48.112;11.622;2023-05-10T00:35:12;1.63;;;1.50;;
9657;SDS011;4867;48.112;11.622;2023-05-10T00:37:39;1.87;;;1.60;;
9657;SDS011;4867;48.112;11.622;2023-05-10T00:40:07;1.70;;;1.60;;
9657;SDS011;4867;48.112;11.622;2023-05-10T00:42:34;1.70;;;1.60;;
9657;SDS011;4867;48.112;11.622;2023-05-10T00:45:02;2.17;;;1.37;;
9657;SDS011;4867;48.112;11.622;2023-05-10T00:47:29;1.77;;;1.60;;
9657;SDS011;4867;48.112;11.622;2023-05-10T00:49:58;1.73;;;1.57;;
9657;SDS011;4867;48.112;11.622;2023-05-10T00:52:27;1.60;;;1.40;;
9657;SDS011;4867;48.112;11.622;2023-05-10T00:54:58;1.50;;;1.30;;
9657;SDS011;4867;48.112;11.622;2023-05-10T00:57:25;1.60;;;1.50;;
9657;SDS011;4867;48.112;11.622;2023-05-10T00:59:52;1.50;;;1.40;;
9657;SDS011;4867;48.112;11.622;2023-05-10T01:02:20;1.60;;;1.50;;
9657;SDS011;4867;48.112;11.622;2023-05-10T01:04:49;1.53;;;1.43;;
9657;SDS011;4867;48.112;11.622;2023-05-10T01:07:16;2.20;;;1.40;;
9657;SDS011;4867;48.112;11.622;2023-05-10T01:09:44;1.60;;;1.50;;
9657;SDS011;4867;48.112;11.622;2023-05-10T01:12:11;1.60;;;1.50;;
9657;SDS011;4867;48.112;11.622;2023-05-10T01:14:39;1.30;;;1.20;;
9657;SDS011;4867;48.112;11.622;2023-05-10T01:17:08;1.43;;;1.30;;
9657;SDS011;4867;48.112;11.622;2023-05-10T01:19:37;1.50;;;1.40;;
9657;SDS011;4867;48.112;11.622;2023-05-10T01:38:38;1.30;;;1.20;;
9657;SDS011;4867;48.112;11.622;2023-05-10T01:41:18;1.83;;;1.40;;
9657;SDS011;4867;48.112;11.622;2023-05-10T01:43:55;1.47;;;1.20;;
9657;SDS011;4867;48.112;11.622;2023-05-10T01:46:28;1.47;;;1.10;;
9657;SDS011;4867;48.112;11.622;2023-05-10T01:49:07;1.57;;;1.40;;
9657;SDS011;4867;48.112;11.622;2023-05-10T01:51:45;1.30;;;1.20;;
9657;SDS011;4867;48.112;11.622;2023-05-10T01:54:19;1.27;;;1.17;;
9657;SDS011;4867;48.112;11.622;2023-05-10T01:56:55;1.90;;;1.40;;
9657;SDS011;4867;48.112;11.622;2023-05-10T01:59:28;2.07;;;1.30;;
9657;SDS011;4867;48.112;11.622;2023-05-10T02:01:58;1.83;;;1.23;;
9657;SDS011;4867;48.112;11.622;2023-05-10T02:04:27;2.90;;;1.30;;
9657;SDS011;4867;48.112;11.622;2023-05-10T02:06:55;1.40;;;1.10;;
9657;SDS011;4867;48.112;11.622;2023-05-10T02:09:25;1.50;;;1.40;;
9657;SDS011;4867;48.112;11.622;2023-05-10T02:11:54;1.50;;;1.40;;
9657;SDS011;4867;48.112;11.622;2023-05-10T02:14:23;2.00;;;1.17;;
9657;SDS011;4867;48.112;11.622;2023-05-10T02:16:52;1.33;;;1.23;;
9657;SDS011;4867;48.112;11.622;2023-05-10T02:19:22;3.00;;;1.30;;
9657;SDS011;4867;48.112;11.622;2023-05-10T02:21:51;2.90;;;1.20;;
9657;SDS011;4867;48.112;11.622;2023-05-10T02:24:20;1.40;;;1.23;;
9657;SDS011;4867;48.112;11.622;2023-05-10T02:26:49;1.40;;;1.30;;
9657;SDS011;4867;48.112;11.622;2023-05-10T02:29:17;1.33;;;1.20;;
9657;SDS011;4867;48.112;11.622;2023-05-10T02:31:47;1.10;;;1.10;;
9657;SDS011;4867;48.112;11.622;2023-05-10T02:34:14;1.83;;;1.20;;
9657;SDS011;4867;48.112;11.622;2023-05-10T02:36:44;1.47;;;1.37;;
9657;SDS011;4867;48.112;11.622;2023-05-10T02:39:12;1.70;;;1.20;;
9657;SDS011;4867;48.112;11.622;2023-05-10T02:41:42;2.07;;;1.43;;
9657;SDS011;4867;48.112;11.622;2023-05-10T02:44:13;1.20;;;1.10;;
9657;SDS011;4867;48.112;11.622;2023-05-10T02:46:43;1.57;;;1.20;;
9657;SDS011;4867;48.112;11.622;2023-05-10T02:49:11;1.87;;;1.27;;
9657;SDS011;4867;48.112;11.622;2023-05-10T02:51:40;1.13;;;1.10;;
9657;SDS011;4867;48.112;11.622;2023-05-10T02:54:11;1.20;;;1.10;;
9657;SDS011;4867;48.112;11.622;2023-05-10T02:56:49;1.20;;;1.10;;
9657;SDS011;4867;48.112;11.622;2023-05-10T02:59:20;3.37;;;1.20;;
9657;SDS011;4867;48.112;11.622;2023-05-10T03:01:47;2.23;;;1.10;;
9657;SDS011;4867;48.112;11.622;2023-05-10T03:04:15;1.30;;;1.17;;
9657;SDS011;4867;48.112;11.622;2023-05-10T03:06:42;1.33;;;1.20;;
9657;SDS011;4867;48.112;11.622;2023-05-10T03:09:10;1.37;;;1.23;;
9657;SDS011;4867;48.112;11.622;2023-05-10T03:17:00;2.73;;;1.23;;
9657;SDS011;4867;48.112;11.622;2023-05-10T03:19:46;1.40;;;1.10;;
9657;SDS011;4867;48.112;11.622;2023-05-10T03:22:21;1.73;;;1.10;;
9657;SDS011;4867;48.112;11.622;2023-05-10T03:24:53;1.20;;;1.10;;
9657;SDS011;4867;48.112;11.622;2023-05-10T03:27:26;1.30;;;1.03;;
9657;SDS011;4867;48.112;11.622;2023-05-10T03:29:56;1.23;;;1.13;;
9657;SDS011;4867;48.112;11.622;2023-05-10T03:32:25;1.23;;;1.13;;
9657;SDS011;4867;48.112;11.622;2023-05-10T03:34:54;1.03;;;1.03;;
9657;SDS011;4867;48.112;11.622;2023-05-10T03:37:23;1.97;;;1.27;;
9657;SDS011;4867;48.112;11.622;2023-05-10T03:39:51;2.90;;;1.07;;
9657;SDS011;4867;48.112;11.622;2023-05-10T03:42:18;1.70;;;1.00;;
9657;SDS011;4867;48.112;11.622;2023-05-10T03:44:46;1.87;;;1.03;;
9657;SDS011;4867;48.112;11.622;2023-05-10T03:47:15;1.27;;;1.10;;
9657;SDS011;4867;48.112;11.622;2023-05-10T03:49:43;1.27;;;1.13;;
9657;SDS011;4867;48.112;11.622;2023-05-10T03:52:11;1.17;;;0.90;;
9657;SDS011;4867;48.112;11.622;2023-05-10T03:54:39;1.40;;;1.00;;
9657;SDS011;4867;48.112;11.622;2023-05-10T03:57:06;1.37;;;1.10;;
9657;SDS011;4867;48.112;11.622;2023-05-10T03:59:34;0.90;;;0.90;;
9657;SDS011;4867;48.112;11.622;2023-05-10T04:02:02;1.30;;;0.90;;
9657;SDS011;4867;48.112;11.622;2023-05-10T04:04:29;1.50;;;1.13;;
9657;SDS011;4867;48.112;11.622;2023-05-10T04:06:57;1.90;;;1.27;;
9657;SDS011;4867;48.112;11.622;2023-05-10T04:09:24;1.10;;;1.00;;
9657;SDS011;4867;48.112;11.622;2023-05-10T04:11:52;3.47;;;1.30;;
9657;SDS011;4867;48.112;11.622;2023-05-10T04:14:19;1.10;;;1.00;;
9657;SDS011;4867;48.112;11.622;2023-05-10T04:16:47;1.10;;;0.90;;
9657;SDS011;4867;48.112;11.622;2023-05-10T04:19:14;1.40;;;1.10;;
9657;SDS011;4867;48.112;11.622;2023-05-10T04:21:42;2.60;;;1.20;;
9657;SDS011;4867;48.112;11.622;2023-05-10T04:24:09;1.10;;;0.90;;
9657;SDS011;4867;48.112;11.622;2023-05-10T04:26:36;2.17;;;1.10;;
9657;SDS011;4867;48.112;11.622;2023-05-10T04:29:03;1.27;;;1.00;;
9657;SDS011;4867;48.112;11.622;2023-05-10T04:31:31;1.10;;;0.97;;
9657;SDS011;4867;48.112;11.622;2023-05-10T04:33:59;1.03;;;0.97;;
9657;SDS011;4867;48.112;11.622;2023-05-10T04:36:26;1.73;;;1.03;;
9657;SDS011;4867;48.112;11.622;2023-05-10T04:38:54;1.00;;;0.90;;
9657;SDS011;4867;48.112;11.622;2023-05-10T04:41:21;2.10;;;1.07;;
9657;SDS011;4867;48.112;11.622;2023-05-10T04:43:48;1.20;;;1.10;;
9657;SDS011;4867;48.112;11.622;2023-05-10T04:46:16;0.97;;;0.90;;
9657;SDS011;4867;48.112;11.622;2023-05-10T04:48:43;1.90;;;1.07;;
9657;SDS011;4867;48.112;11.622;2023-05-10T04:51:10;1.00;;;0.90;;
9657;SDS011;4867;48.112;11.622;2023-05-10T04:53:38;1.30;;;1.10;;
9657;SDS011;4867;48.112;11.622;2023-05-10T04:56:05;1.43;;;1.00;;
9657;SDS011;4867;48.112;11.622;2023-05-10T04:58:33;2.10;;;1.03;;
9657;SDS011;4867;48.112;11.622;2023-05-10T05:01:09;1.83;;;1.00;;
9657;SDS011;4867;48.112;11.622;2023-05-10T05:03:37;1.90;;;1.07;;
9657;SDS011;4867;48.112;11.622;2023-05-10T05:06:05;1.10;;;0.90;;
9657;SDS011;4867;48.112;11.622;2023-05-10T05:08:32;2.23;;;0.93;;
9657;SDS011;4867;48.112;11.622;2023-05-10T05:10:59;1.40;;;1.20;;
9657;SDS011;4867;48.112;11.622;2023-05-10T05:13:27;2.40;;;1.07;;
9657;SDS011;4867;48.112;11.622;2023-05-10T05:15:54;2.30;;;1.00;;
9657;SDS011;4867;48.112;11.622;2023-05-10T05:18:22;1.00;;;0.87;;
9657;SDS011;4867;48.112;11.622;2023-05-10T05:20:49;0.90;;;0.90;;
9657;SDS011;4867;48.112;11.622;2023-05-10T05:23:18;1.00;;;0.90;;
9657;SDS011;4867;48.112;11.622;2023-05-10T05:25:47;0.97;;;0.90;;
9657;SDS011;4867;48.112;11.622;2023-05-10T05:28:14;1.10;;;0.90;;
9657;SDS011;4867;48.112;11.622;2023-05-10T05:30:41;0.97;;;0.90;;
9657;SDS011;4867;48.112;11.622;2023-05-10T05:33:09;0.80;;;0.80;;
9657;SDS011;4867;48.112;11.622;2023-05-10T05:35:36;0.73;;;0.73;;
9657;SDS011;4867;48.112;11.622;2023-05-10T05:38:03;1.13;;;0.80;;
9657;SDS011;4867;48.112;11.622;2023-05-10T05:40:31;1.00;;;0.90;;
9657;SDS011;4867;48.112;11.622;2023-05-10T05:42:58;2.10;;;0.90;;
9657;SDS011;4867;48.112;11.622;2023-05-10T05:45:25;0.90;;;0.90;;
9657;SDS011;4867;48.112;11.622;2023-05-10T05:47:52;1.23;;;0.93;;
9657;SDS011;4867;48.112;11.622;2023-05-10T05:50:20;2.17;;;1.00;;
9657;SDS011;4867;48.112;11.622;2023-05-10T05:52:47;2.10;;;1.20;;
9657;SDS011;4867;48.112;11.622;2023-05-10T05:55:15;0.97;;;0.80;;
9657;SDS011;4867;48.112;11.622;2023-05-10T05:57:42;1.73;;;1.10;;
9657;SDS011;4867;48.112;11.622;2023-05-10T06:00:10;1.63;;;0.90;;
9657;SDS011;4867;48.112;11.622;2023-05-10T06:02:40;3.47;;;1.20;;
9657;SDS011;4867;48.112;11.622;2023-05-10T06:05:08;2.47;;;1.10;;
9657;SDS011;4867;48.112;11.622;2023-05-10T06:07:35;1.60;;;1.10;;
9657;SDS011;4867;48.112;11.622;2023-05-10T06:10:03;2.20;;;1.10;;
9657;SDS011;4867;48.112;11.622;2023-05-10T06:12:30;2.60;;;1.20;;
9657;SDS011;4867;48.112;11.622;2023-05-10T06:14:58;2.23;;;1.30;;
9657;SDS011;4867;48.112;11.622;2023-05-10T06:17:26;3.90;;;1.10;;
9657;SDS011;4867;48.112;11.622;2023-05-10T06:19:54;2.80;;;1.27;;
9657;SDS011;4867;48.112;11.622;2023-05-10T06:22:22;1.57;;;1.17;;
9657;SDS011;4867;48.112;11.622;2023-05-10T06:24:50;1.30;;;1.10;;
9657;SDS011;4867;48.112;11.622;2023-05-10T06:27:18;1.33;;;1.20;;
9657;SDS011;4867;48.112;11.622;2023-05-10T06:29:45;1.77;;;1.20;;
9657;SDS011;4867;48.112;11.622;2023-05-10T06:32:13;2.20;;;1.30;;
9657;SDS011;4867;48.112;11.622;2023-05-10T06:34:40;2.70;;;1.30;;
9657;SDS011;4867;48.112;11.622;2023-05-10T06:37:07;1.87;;;1.30;;
9657;SDS011;4867;48.112;11.622;2023-05-10T06:39:34;2.40;;;1.50;;
9657;SDS011;4867;48.112;11.622;2023-05-10T06:42:02;4.33;;;1.60;;
9657;SDS011;4867;48.112;11.622;2023-05-10T06:44:32;3.17;;;1.60;;
9657;SDS011;4867;48.112;11.622;2023-05-10T06:47:00;1.40;;;1.30;;
9657;SDS011;4867;48.112;11.622;2023-05-10T06:49:27;3.00;;;1.60;;
9657;SDS011;4867;48.112;11.622;2023-05-10T06:51:55;1.70;;;1.30;;
9657;SDS011;4867;48.112;11.622;2023-05-10T06:54:23;1.63;;;1.30;;
9657;SDS011;4867;48.112;11.622;2023-05-10T06:56:51;3.57;;;1.53;;
9657;SDS011;4867;48.112;11.622;2023-05-10T06:59:18;3.00;;;1.50;;
9657;SDS011;4867;48.112;11.622;2023-05-10T07:01:46;1.60;;;1.50;;
9657;SDS011;4867;48.112;11.622;2023-05-10T07:04:13;2.50;;;1.50;;
9657;SDS011;4867;48.112;11.622;2023-05-10T07:06:41;1.67;;;1.57;;
9657;SDS011;4867;48.112;11.622;2023-05-10T07:09:09;3.93;;;1.60;;
9657;SDS011;4867;48.112;11.622;2023-05-10T07:11:36;2.03;;;1.60;;
9657;SDS011;4867;48.112;11.622;2023-05-10T07:14:04;3.07;;;1.50;;
9657;SDS011;4867;48.112;11.622;2023-05-10T07:16:31;2.67;;;1.60;;
9657;SDS011;4867;48.112;11.622;2023-05-10T07:18:59;2.43;;;1.50;;
9657;SDS011;4867;48.112;11.622;2023-05-10T07:21:26;2.80;;;1.93;;
9657;SDS011;4867;48.112;11.622;2023-05-10T07:23:55;3.30;;;1.67;;
9657;SDS011;4867;48.112;11.622;2023-05-10T07:26:22;1.83;;;1.53;;
9657;SDS011;4867;48.112;11.622;2023-05-10T07:28:50;1.60;;;1.50;;
9657;SDS011;4867;48.112;11.622;2023-05-10T07:31:17;1.50;;;1.40;;
9657;SDS011;4867;48.112;11.622;2023-05-10T07:33:45;1.77;;;1.50;;
9657;SDS011;4867;48.112;11.622;2023-05-10T07:36:12;1.90;;;1.53;;
9657;SDS011;4867;48.112;11.622;2023-05-10T07:38:40;1.73;;;1.50;;
9657;SDS011;4867;48.112;11.622;2023-05-10T07:41:07;2.37;;;1.40;;
9657;SDS011;4867;48.112;11.622;2023-05-10T07:43:34;1.30;;;1.20;;
9657;SDS011;4867;48.112;11.622;2023-05-10T07:46:01;1.50;;;1.40;;
9657;SDS011;4867;48.112;11.622;2023-05-10T07:48:29;1.90;;;1.50;;
9657;SDS011;4867;48.112;11.622;2023-05-10T07:50:56;2.67;;;1.60;;
9657;SDS011;4867;48.112;11.622;2023-05-10T07:53:25;4.47;;;1.50;;
9657;SDS011;4867;48.112;11.622;2023-05-10T07:55:59;2.90;;;1.40;;
9657;SDS011;4867;48.112;11.622;2023-05-10T07:58:46;1.40;;;1.30;;
9657;SDS011;4867;48.112;11.622;2023-05-10T08:01:13;1.43;;;1.30;;
9657;SDS011;4867;48.112;11.622;2023-05-10T08:03:40;1.73;;;1.40;;
9657;SDS011;4867;48.112;11.622;2023-05-10T08:06:07;1.83;;;1.40;;
9657;SDS011;4867;48.112;11.622;2023-05-10T08:08:35;1.77;;;1.20;;
9657;SDS011;4867;48.112;11.622;2023-05-10T08:11:03;1.60;;;1.50;;
9657;SDS011;4867;48.112;11.622;2023-05-10T08:13:30;1.40;;;1.20;;
9657;SDS011;4867;48.112;11.622;2023-05-10T08:15:58;1.73;;;1.50;;
9657;SDS011;4867;48.112;11.622;2023-05-10T08:18:25;1.60;;;1.30;;
9657;SDS011;4867;48.112;11.622;2023-05-10T08:20:52;1.40;;;1.30;;
9657;SDS011;4867;48.112;11.622;2023-05-10T08:23:20;1.80;;;1.70;;
9657;SDS011;4867;48.112;11.622;2023-05-10T08:25:47;1.57;;;1.47;;
9657;SDS011;4867;48.112;11.622;2023-05-10T08:28:15;2.23;;;1.33;;
9657;SDS011;4867;48.112;11.622;2023-05-10T08:30:42;1.60;;;1.50;;
9657;SDS011;4867;48.112;11.622;2023-05-10T08:33:09;1.57;;;1.20;;
9657;SDS011;4867;48.112;11.622;2023-05-10T08:35:36;1.20;;;1.10;;
9657;SDS011;4867;48.112;11.622;2023-05-10T08:38:03;1.93;;;1.10;;
9657;SDS011;4867;48.112;11.622;2023-05-10T08:40:31;1.57;;;1.20;;
9657;SDS011;4867;48.112;11.622;2023-05-10T08:43:00;1.37;;;1.13;;
9657;SDS011;4867;48.112;11.622;2023-05-10T08:45:39;1.90;;;1.20;;
9657;SDS011;4867;48.112;11.622;2023-05-10T08:48:08;1.37;;;1.20;;
9657;SDS011;4867;48.112;11.622;2023-05-10T08:50:37;1.20;;;1.03;;
9657;SDS011;4867;48.112;11.622;2023-05-10T08:53:09;1.30;;;1.20;;
9657;SDS011;4867;48.112;11.622;2023-05-10T08:55:37;1.30;;;1.20;;
9657;SDS011;4867;48.112;11.622;2023-05-10T08:58:06;1.13;;;1.03;;
9657;SDS011;4867;48.112;11.622;2023-05-10T09:00:34;2.57;;;1.10;;
9657;SDS011;4867;48.112;11.622;2023-05-10T09:03:04;1.60;;;1.30;;
9657;SDS011;4867;48.112;11.622;2023-05-10T09:05:32;2.17;;;1.37;;
9657;SDS011;4867;48.112;11.622;2023-05-10T09:08:00;1.30;;;1.20;;
9657;SDS011;4867;48.112;11.622;2023-05-10T09:10:27;1.47;;;1.13;;
9657;SDS011;4867;48.112;11.622;2023-05-10T09:12:56;1.73;;;1.13;;
9657;SDS011;4867;48.112;11.622;2023-05-10T09:15:25;1.40;;;1.20;;
9657;SDS011;4867;48.112;11.622;2023-05-10T09:17:52;2.93;;;1.27;;
9657;SDS011;4867;48.112;11.622;2023-05-10T09:20:21;2.50;;;1.20;;
9657;SDS011;4867;48.112;11.622;2023-05-10T09:22:49;3.13;;;1.30;;
9657;SDS011;4867;48.112;11.622;2023-05-10T09:25:16;1.70;;;1.20;;
9657;SDS011;4867;48.112;11.622;2023-05-10T09:27:45;1.87;;;1.13;;
9657;SDS011;4867;48.112;11.622;2023-05-10T09:30:17;2.07;;;1.40;;
9657;SDS011;4867;48.112;11.622;2023-05-10T09:32:51;2.80;;;1.30;;
9657;SDS011;4867;48.112;11.622;2023-05-10T09:35:20;2.00;;;1.40;;
9657;SDS011;4867;48.112;11.622;2023-05-10T09:37:52;2.37;;;2.17;;
9657;SDS011;4867;48.112;11.622;2023-05-10T09:40:24;3.73;;;3.30;;
9657;SDS011;4867;48.112;11.622;2023-05-10T09:45:37;5.63;;;5.00;;
9657;SDS011;4867;48.112;11.622;2023-05-10T09:48:05;1.80;;;1.40;;
9657;SDS011;4867;48.112;11.622;2023-05-10T09:50:33;3.53;;;2.43;;
9657;SDS011;4867;48.112;11.622;2023-05-10T09:53:01;6.13;;;3.20;;
9657;SDS011;4867;48.112;11.622;2023-05-10T09:56:04;3.53;;;2.10;;
9657;SDS011;4867;48.112;11.622;2023-05-10T09:58:24;2.33;;;1.20;;
9657;SDS011;4867;48.112;11.622;2023-05-10T10:00:51;1.87;;;1.47;;
9657;SDS011;4867;48.112;11.622;2023-05-10T10:03:20;8.23;;;4.97;;
9657;SDS011;4867;48.112;11.622;2023-05-10T10:05:48;2.20;;;1.60;;
9657;SDS011;4867;48.112;11.622;2023-05-10T10:08:17;3.73;;;2.23;;
9657;SDS011;4867;48.112;11.622;2023-05-10T10:10:44;2.30;;;1.63;;
9657;SDS011;4867;48.112;11.622;2023-05-10T10:13:13;2.67;;;2.30;;
9657;SDS011;4867;48.112;11.622;2023-05-10T10:15:40;3.07;;;2.00;;
9657;SDS011;4867;48.112;11.622;2023-05-10T10:18:13;1.60;;;1.50;;
9657;SDS011;4867;48.112;11.622;2023-05-10T10:20:44;2.90;;;1.93;;
9657;SDS011;4867;48.112;11.622;2023-05-10T10:23:12;2.47;;;1.40;;
9657;SDS011;4867;48.112;11.622;2023-05-10T10:25:42;1.90;;;1.10;;
9657;SDS011;4867;48.112;11.622;2023-05-10T10:31:22;1.70;;;1.40;;
9657;SDS011;4867;48.112;11.622;2023-05-10T10:33:51;5.00;;;1.40;;
9657;SDS011;4867;48.112;11.622;2023-05-10T10:36:26;3.40;;;2.70;;
9657;SDS011;4867;48.112;11.622;2023-05-10T10:38:57;1.93;;;1.27;;
9657;SDS011;4867;48.112;11.622;2023-05-10T10:41:31;1.33;;;1.20;;
9657;SDS011;4867;48.112;11.622;2023-05-10T10:44:45;3.30;;;1.47;;
9657;SDS011;4867;48.112;11.622;2023-05-10T10:52:14;2.97;;;2.00;;
9657;SDS011;4867;48.112;11.622;2023-05-10T10:54:58;2.90;;;1.53;;
9657;SDS011;4867;48.112;11.622;2023-05-10T10:57:33;4.10;;;1.50;;
9657;SDS011;4867;48.112;11.622;2023-05-10T11:00:23;1.73;;;1.63;;
9657;SDS011;4867;48.112;11.622;2023-05-10T11:03:05;1.40;;;1.30;;
9657;SDS011;4867;48.112;11.622;2023-05-10T11:08:10;1.77;;;1.47;;
9657;SDS011;4867;48.112;11.622;2023-05-10T11:10:50;2.13;;;1.50;;
9657;SDS011;4867;48.112;11.622;2023-05-10T11:16:09;2.30;;;1.80;;
9657;SDS011;4867;48.112;11.622;2023-05-10T11:18:38;3.17;;;1.70;;
9657;SDS011;4867;48.112;11.622;2023-05-10T11:21:07;2.53;;;1.80;;
9657;SDS011;4867;48.112;11.622;2023-05-10T11:26:09;4.60;;;2.20;;
9657;SDS011;4867;48.112;11.622;2023-05-10T11:28:41;2.07;;;1.87;;
9657;SDS011;4867;48.112;11.622;2023-05-10T11:31:09;2.17;;;1.90;;
9657;SDS011;4867;48.112;11.622;2023-05-10T11:36:13;3.20;;;1.60;;
9657;SDS011;4867;48.112;11.622;2023-05-10T11:38:45;2.87;;;1.80;;
9657;SDS011;4867;48.112;11.622;2023-05-10T11:41:14;2.67;;;1.90;;
9657;SDS011;4867;48.112;11.622;2023-05-10T11:43:43;5.10;;;1.80;;
9657;SDS011;4867;48.112;11.622;2023-05-10T11:46:13;3.13;;;1.77;;
9657;SDS011;4867;48.112;11.622;2023-05-10T11:48:41;2.80;;;2.00;;
9657;SDS011;4867;48.112;11.622;2023-05-10T11:51:09;3.37;;;2.03;;
9657;SDS011;4867;48.112;11.622;2023-05-10T11:53:37;3.00;;;2.10;;
9657;SDS011;4867;48.112;11.622;2023-05-10T11:56:05;6.30;;;3.10;;
9657;SDS011;4867;48.112;11.622;2023-05-10T11:58:39;4.83;;;2.93;;
9657;SDS011;4867;48.112;11.622;2023-05-10T12:01:06;3.90;;;3.10;;
9657;SDS011;4867;48.112;11.622;2023-05-10T12:03:38;7.50;;;3.40;;
9657;SDS011;4867;48.112;11.622;2023-05-10T12:06:07;5.13;;;3.23;;
9657;SDS011;4867;48.112;11.622;2023-05-10T12:08:34;5.27;;;4.03;;
9657;SDS011;4867;48.112;11.622;2023-05-10T12:11:06;3.80;;;2.80;;
9657;SDS011;4867;48.112;11.622;2023-05-10T12:13:38;6.30;;;2.93;;
9657;SDS011;4867;48.112;11.622;2023-05-10T12:16:13;4.40;;;2.10;;
9657;SDS011;4867;48.112;11.622;2023-05-10T12:18:42;2.00;;;1.80;;
9657;SDS011;4867;48.112;11.622;2023-05-10T12:21:10;4.47;;;2.30;;
9657;SDS011;4867;48.112;11.622;2023-05-10T12:23:38;2.53;;;1.80;;
9657;SDS011;4867;48.112;11.622;2023-05-10T12:26:06;2.67;;;1.90;;
9657;SDS011;4867;48.112;11.622;2023-05-10T12:28:37;3.13;;;1.90;;
9657;SDS011;4867;48.112;11.622;2023-05-10T12:31:06;2.17;;;1.80;;
9657;SDS011;4867;48.112;11.622;2023-05-10T12:33:38;3.03;;;2.00;;
9657;SDS011;4867;48.112;11.622;2023-05-10T12:36:13;2.53;;;1.70;;
9657;SDS011;4867;48.112;11.622;2023-05-10T12:38:42;2.07;;;1.77;;
9657;SDS011;4867;48.112;11.622;2023-05-10T12:41:17;6.60;;;5.90;;
9657;SDS011;4867;48.112;11.622;2023-05-10T12:43:45;4.57;;;1.90;;
9657;SDS011;4867;48.112;11.622;2023-05-10T12:46:16;2.57;;;2.13;;
9657;SDS011;4867;48.112;11.622;2023-05-10T12:48:44;2.30;;;1.77;;
9657;SDS011;4867;48.112;11.622;2023-05-10T12:51:12;2.80;;;1.90;;
9657;SDS011;4867;48.112;11.622;2023-05-10T12:53:42;3.40;;;2.20;;
9657;SDS011;4867;48.112;11.622;2023-05-10T12:56:15;3.27;;;2.00;;
9657;SDS011;4867;48.112;11.622;2023-05-10T12:58:42;2.37;;;1.80;;
9657;SDS011;4867;48.112;11.622;2023-05-10T13:01:14;1.83;;;1.73;;
9657;SDS011;4867;48.112;11.622;2023-05-10T13:03:42;2.33;;;1.67;;
9657;SDS011;4867;48.112;11.622;2023-05-10T13:06:13;3.93;;;1.77;;
9657;SDS011;4867;48.112;11.622;2023-05-10T13:08:40;2.30;;;1.90;;
9657;SDS011;4867;48.112;11.622;2023-05-10T13:11:07;2.30;;;2.10;;
9657;SDS011;4867;48.112;11.622;2023-05-10T13:13:34;2.07;;;1.80;;
9657;SDS011;4867;48.112;11.622;2023-05-10T13:16:01;4.73;;;2.40;;
9657;SDS011;4867;48.112;11.622;2023-05-10T13:18:29;3.43;;;2.17;;
9657;SDS011;4867;48.112;11.622;2023-05-10T13:20:56;2.80;;;2.33;;
9657;SDS011;4867;48.112;11.622;2023-05-10T13:23:23;3.63;;;1.93;;
9657;SDS011;4867;48.112;11.622;2023-05-10T13:25:51;3.03;;;2.17;;
9657;SDS011;4867;48.112;11.622;2023-05-10T13:28:18;4.20;;;2.33;;
9657;SDS011;4867;48.112;11.622;2023-05-10T13:30:46;3.93;;;2.30;;
9657;SDS011;4867;48.112;11.622;2023-05-10T13:33:13;2.50;;;2.30;;
9657;SDS011;4867;48.112;11.622;2023-05-10T13:35:40;3.23;;;2.20;;
9657;SDS011;4867;48.112;11.622;2023-05-10T13:38:07;3.00;;;2.43;;
9657;SDS011;4867;48.112;11.622;2023-05-10T13:40:35;2.83;;;2.27;;
9657;SDS011;4867;48.112;11.622;2023-05-10T13:43:02;3.90;;;2.23;;
9657;SDS011;4867;48.112;11.622;2023-05-10T13:45:30;2.43;;;2.20;;
9657;SDS011;4867;48.112;11.622;2023-05-10T13:47:57;4.50;;;2.40;;
9657;SDS011;4867;48.112;11.622;2023-05-10T13:50:24;3.70;;;2.40;;
9657;SDS011;4867;48.112;11.622;2023-05-10T13:52:52;3.17;;;2.20;;
9657;SDS011;4867;48.112;11.622;2023-05-10T13:55:19;2.80;;;1.90;;
9657;SDS011;4867;48.112;11.622;2023-05-10T13:57:46;4.10;;;2.10;;
9657;SDS011;4867;48.112;11.622;2023-05-10T14:00:14;2.07;;;1.73;;
9657;SDS011;4867;48.112;11.622;2023-05-10T14:02:41;2.90;;;1.70;;
9657;SDS011;4867;48.112;11.622;2023-05-10T14:05:09;3.23;;;2.20;;
9657;SDS011;4867;48.112;11.622;2023-05-10T14:07:36;3.63;;;2.40;;
9657;SDS011;4867;48.112;11.622;2023-05-10T14:10:04;4.30;;;2.50;;
9657;SDS011;4867;48.112;11.622;2023-05-10T14:12:32;4.27;;;2.40;;
9657;SDS011;4867;48.112;11.622;2023-05-10T14:14:59;2.67;;;1.70;;
9657;SDS011;4867;48.112;11.622;2023-05-10T14:17:26;2.03;;;1.70;;
9657;SDS011;4867;48.112;11.622;2023-05-10T14:19:54;2.63;;;2.00;;
9657;SDS011;4867;48.112;11.622;2023-05-10T14:22:21;2.37;;;1.70;;
9657;SDS011;4867;48.112;11.622;2023-05-10T14:24:49;2.60;;;1.77;;
9657;SDS011;4867;48.112;11.622;2023-05-10T14:27:16;3.63;;;1.70;;
9657;SDS011;4867;48.112;11.622;2023-05-10T14:29:44;2.63;;;1.90;;
9657;SDS011;4867;48.112;11.622;2023-05-10T14:32:12;2.93;;;1.50;;
9657;SDS011;4867;48.112;11.622;2023-05-10T14:34:39;2.17;;;1.97;;
9657;SDS011;4867;48.112;11.622;2023-05-10T14:37:06;2.00;;;1.80;;
9657;SDS011;4867;48.112;11.622;2023-05-10T14:39:36;2.10;;;1.90;;
9657;SDS011;4867;48.112;11.622;2023-05-10T14:42:04;1.57;;;1.47;;
9657;SDS011;4867;48.112;11.622;2023-05-10T14:44:31;2.43;;;1.80;;
9657;SDS011;4867;48.112;11.622;2023-05-10T14:46:59;1.87;;;1.63;;
9657;SDS011;4867;48.112;11.622;2023-05-10T14:49:26;1.40;;;1.30;;
9657;SDS011;4867;48.112;11.622;2023-05-10T14:51:56;2.20;;;1.70;;
9657;SDS011;4867;48.112;11.622;2023-05-10T14:54:23;1.53;;;1.43;;
9657;SDS011;4867;48.112;11.622;2023-05-10T14:56:50;4.17;;;1.80;;
9657;SDS011;4867;48.112;11.622;2023-05-10T14:59:18;3.00;;;1.50;;
9657;SDS011;4867;48.112;11.622;2023-05-10T15:01:49;2.83;;;1.60;;
9657;SDS011;4867;48.112;11.622;2023-05-10T15:04:17;2.60;;;1.70;;
9657;SDS011;4867;48.112;11.622;2023-05-10T15:06:45;1.43;;;1.33;;
9657;SDS011;4867;48.112;11.622;2023-05-10T15:09:15;2.63;;;1.60;;
9657;SDS011;4867;48.112;11.622;2023-05-10T15:11:43;3.17;;;1.60;;
9657;SDS011;4867;48.112;11.622;2023-05-10T15:14:11;2.90;;;1.70;;
9657;SDS011;4867;48.112;11.622;2023-05-10T15:16:38;2.53;;;1.70;;
9657;SDS011;4867;48.112;11.622;2023-05-10T15:19:05;3.23;;;1.40;;
9657;SDS011;4867;48.112;11.622;2023-05-10T15:21:33;1.67;;;1.57;;
9657;SDS011;4867;48.112;11.622;2023-05-10T15:24:05;2.33;;;1.70;;
9657;SDS011;4867;48.112;11.622;2023-05-10T15:26:32;2.43;;;1.50;;
9657;SDS011;4867;48.112;11.622;2023-05-10T15:29:00;2.03;;;1.80;;
9657;SDS011;4867;48.112;11.622;2023-05-10T15:31:27;2.43;;;1.70;;
9657;SDS011;4867;48.112;11.622;2023-05-10T15:33:58;4.07;;;1.73;;
9657;SDS011;4867;48.112;11.622;2023-05-10T15:36:25;2.87;;;1.60;;
9657;SDS011;4867;48.112;11.622;2023-05-10T15:38:53;1.73;;;1.60;;
9657;SDS011;4867;48.112;11.622;2023-05-10T15:41:21;2.37;;;1.60;;
9657;SDS011;4867;48.112;11.622;2023-05-10T15:43:48;3.10;;;1.57;;
9657;SDS011;4867;48.112;11.622;2023-05-10T15:46:15;1.90;;;1.70;;
9657;SDS011;4867;48.112;11.622;2023-05-10T15:48:45;2.40;;;1.90;;
9657;SDS011;4867;48.112;11.622;2023-05-10T15:51:13;2.23;;;2.00;;
9657;SDS011;4867;48.112;11.622;2023-05-10T15:53:41;3.10;;;1.80;;